Time;durP1;ratioP1;P1;durP2;ratioP2;P2;SDS_P1;SDS_P2;PMS_P1;PMS_P2;Temp;Humidity;BMP_temperature;BMP_pressure;BME280_temperature;BME280_humidity;BME280_pressure;Samples;Min_cycle;Max_cycle;Signal;HPM_P1;HPM_P2
2023/09/15 00:00:43;;;;;;;1.20;1.10;;;22.90;78.50;;;;;;5078614;28;45079;-56
2023/09/15 00:03:10;;;;;;;2.15;1.38;;;22.90;78.50;;;;;;5076270;28;45456;-56
2023/09/15 00:05:37;;;;;;;2.30;1.30;;;22.90;78.40;;;;;;5068008;28;46357;-55
2023/09/15 00:08:05;;;;;;;1.33;1.17;;;22.90;78.30;;;;;;5073193;28;45141;-56
2023/09/15 00:10:34;;;;;;;1.80;1.25;;;22.90;78.30;;;;;;5079815;28;45063;-55
2023/09/15 00:13:02;;;;;;;1.95;1.40;;;22.90;78.30;;;;;;5084548;28;45123;-55
2023/09/15 00:15:29;;;;;;;2.38;1.55;;;22.90;78.20;;;;;;5078546;28;45139;-56
2023/09/15 00:17:56;;;;;;;2.35;1.42;;;22.80;78.10;;;;;;5077014;28;45156;-55
2023/09/15 00:20:24;;;;;;;1.67;1.20;;;22.90;78.10;;;;;;5081346;28;45303;-56
2023/09/15 00:22:52;;;;;;;1.77;1.23;;;22.80;78.00;;;;;;5079951;28;45192;-56
2023/09/15 00:25:20;;;;;;;1.95;1.27;;;22.80;77.80;;;;;;5074073;28;45161;-56
2023/09/15 00:27:49;;;;;;;2.45;1.35;;;22.90;77.90;;;;;;5085759;28;45256;-56
2023/09/15 00:30:16;;;;;;;1.95;1.13;;;22.90;77.90;;;;;;5066745;27;45178;-56
2023/09/15 00:32:43;;;;;;;1.17;1.00;;;22.90;77.90;;;;;;5077444;28;45161;-56
2023/09/15 00:35:10;;;;;;;1.73;1.15;;;22.90;77.80;;;;;;5066188;28;45316;-56
2023/09/15 00:37:37;;;;;;;1.90;1.40;;;22.90;77.80;;;;;;5079031;28;45211;-56
2023/09/15 00:40:08;;;;;;;1.15;1.00;;;22.90;77.70;;;;;;5075392;28;45211;-56
2023/09/15 00:42:35;;;;;;;1.52;1.20;;;22.90;77.70;;;;;;5074227;28;45270;-55
2023/09/15 00:45:05;;;;;;;1.60;1.17;;;22.90;77.60;;;;;;5076203;28;46226;-56
2023/09/15 00:47:33;;;;;;;1.73;1.27;;;22.90;77.50;;;;;;5083207;28;45137;-56
2023/09/15 00:50:00;;;;;;;1.67;1.25;;;22.80;78.40;;;;;;5081386;28;45244;-56
2023/09/15 00:52:27;;;;;;;1.98;1.17;;;22.90;77.50;;;;;;5070930;28;45350;-55
2023/09/15 00:54:55;;;;;;;1.17;1.08;;;22.80;77.30;;;;;;5076934;27;45304;-55
2023/09/15 00:57:22;;;;;;;1.65;1.17;;;22.90;77.30;;;;;;5079004;28;45634;-56
2023/09/15 00:59:49;;;;;;;1.25;1.05;;;22.80;77.20;;;;;;5070807;28;45088;-56
2023/09/15 01:02:18;;;;;;;2.03;1.40;;;22.80;77.10;;;;;;5081351;28;45122;-55
2023/09/15 01:04:45;;;;;;;1.60;1.08;;;22.90;77.20;;;;;;5078356;27;45182;-55
2023/09/15 01:07:12;;;;;;;1.88;1.20;;;22.80;77.10;;;;;;5074680;28;45391;-56
2023/09/15 01:09:39;;;;;;;1.70;1.02;;;22.90;77.20;;;;;;5080804;28;44607;-55
2023/09/15 01:12:07;;;;;;;2.08;1.58;;;22.80;77.40;;;;;;5079214;27;45220;-56
2023/09/15 01:14:35;;;;;;;1.80;1.30;;;22.80;77.00;;;;;;5076194;27;45216;-55
2023/09/15 01:17:10;;;;;;;1.40;1.08;;;22.80;77.00;;;;;;5082639;28;45249;-56
2023/09/15 01:19:54;;;;;;;1.63;1.27;;;22.80;77.00;;;;;;5076373;28;45240;-55
2023/09/15 01:22:40;;;;;;;1.70;1.05;;;22.80;76.80;;;;;;5069198;28;45275;-56
2023/09/15 01:25:34;;;;;;;2.40;1.20;;;22.80;76.90;;;;;;5073963;27;47318;-56
2023/09/15 01:28:19;;;;;;;1.80;1.13;;;22.80;76.70;;;;;;5084319;28;44665;-56
2023/09/15 01:30:50;;;;;;;1.25;1.00;;;22.80;76.80;;;;;;5071846;28;45441;-55
2023/09/15 01:33:19;;;;;;;1.55;1.13;;;22.80;76.80;;;;;;5079327;28;45377;-56
2023/09/15 01:35:46;;;;;;;1.58;1.20;;;22.80;76.80;;;;;;5081443;28;45419;-55
2023/09/15 01:38:13;;;;;;;1.35;1.10;;;22.80;76.80;;;;;;5076775;28;45244;-55
2023/09/15 01:40:39;;;;;;;1.77;1.30;;;22.80;76.80;;;;;;5081391;28;45024;-55
2023/09/15 01:43:06;;;;;;;1.60;1.20;;;22.80;77.70;;;;;;5079533;28;45102;-55
2023/09/15 01:45:33;;;;;;;1.85;1.23;;;22.80;76.60;;;;;;5081052;27;45223;-56
2023/09/15 01:48:02;;;;;;;3.20;1.33;;;22.80;76.60;;;;;;5080760;28;45210;-55
2023/09/15 01:50:30;;;;;;;1.38;1.00;;;22.80;76.50;;;;;;5076843;28;44654;-55
2023/09/15 01:52:57;;;;;;;1.13;0.90;;;22.80;76.50;;;;;;5080296;28;45183;-56
2023/09/15 01:55:26;;;;;;;2.10;1.30;;;22.80;76.40;;;;;;5078062;28;47380;-55
2023/09/15 01:57:53;;;;;;;1.52;1.05;;;22.70;76.20;;;;;;5069120;28;44682;-55
2023/09/15 02:00:20;;;;;;;3.45;1.23;;;22.80;76.30;;;;;;5075986;28;45043;-55
2023/09/15 02:02:46;;;;;;;1.98;1.13;;;22.80;76.30;;;;;;5081608;28;45138;-55
2023/09/15 02:05:22;;;;;;;2.42;1.23;;;22.80;76.20;;;;;;5079876;28;45122;-56
2023/09/15 02:07:49;;;;;;;1.25;1.10;;;22.80;76.10;;;;;;5077801;28;45188;-56
2023/09/15 02:10:16;;;;;;;1.25;1.10;;;22.80;76.30;;;;;;5073112;28;45171;-55
2023/09/15 02:12:43;;;;;;;3.28;1.08;;;22.80;76.20;;;;;;5070172;28;44833;-56
2023/09/15 02:15:11;;;;;;;1.17;0.80;;;22.70;76.10;;;;;;5080701;28;46349;-56
2023/09/15 02:17:38;;;;;;;2.33;1.30;;;22.70;76.10;;;;;;5080434;28;44725;-55
2023/09/15 02:20:12;;;;;;;1.58;0.95;;;22.80;76.20;;;;;;5076352;28;45146;-56
2023/09/15 02:22:42;;;;;;;1.13;0.90;;;22.80;76.20;;;;;;5076156;28;45256;-56
2023/09/15 02:25:10;;;;;;;1.52;0.95;;;22.80;76.10;;;;;;5082523;27;47272;-55
2023/09/15 02:27:37;;;;;;;2.30;1.23;;;22.80;76.10;;;;;;5077605;28;45075;-56
2023/09/15 02:30:04;;;;;;;1.50;1.00;;;22.80;76.20;;;;;;5078707;28;45264;-55
2023/09/15 02:32:31;;;;;;;1.35;0.95;;;22.70;76.10;;;;;;5075889;28;45202;-55
2023/09/15 02:34:58;;;;;;;1.55;1.27;;;22.70;76.10;;;;;;5082647;28;46287;-55
2023/09/15 02:37:25;;;;;;;1.27;1.17;;;22.80;76.20;;;;;;5069447;28;45122;-56
2023/09/15 02:39:54;;;;;;;1.70;0.93;;;22.80;76.10;;;;;;5074515;28;45129;-55
2023/09/15 02:42:21;;;;;;;1.50;1.20;;;22.70;75.90;;;;;;5077375;28;45090;-55
2023/09/15 02:44:48;;;;;;;1.42;1.00;;;22.70;75.90;;;;;;5075341;28;46268;-55
2023/09/15 02:47:15;;;;;;;2.17;1.05;;;22.70;75.90;;;;;;5082495;28;44629;-55
2023/09/15 02:49:41;;;;;;;1.85;1.27;;;22.70;75.80;;;;;;5084499;28;45143;-55
2023/09/15 02:52:08;;;;;;;1.45;0.93;;;22.70;75.80;;;;;;5080115;28;45246;-55
2023/09/15 02:54:35;;;;;;;1.20;0.95;;;22.70;75.30;;;;;;5073681;28;45245;-55
2023/09/15 02:57:04;;;;;;;1.73;1.10;;;22.60;74.10;;;;;;5072513;27;45191;-55
2023/09/15 02:59:30;;;;;;;1.92;1.30;;;22.60;72.80;;;;;;5076774;28;45079;-55
2023/09/15 03:01:58;;;;;;;1.58;1.25;;;22.60;72.20;;;;;;5079565;28;45249;-55
2023/09/15 03:04:25;;;;;;;1.52;1.10;;;22.60;71.30;;;;;;5080367;28;45359;-55
2023/09/15 03:06:52;;;;;;;2.03;0.98;;;22.60;70.80;;;;;;5077331;28;45363;-55
2023/09/15 03:09:19;;;;;;;1.42;1.10;;;22.50;70.60;;;;;;5077721;28;45371;-55
2023/09/15 03:11:46;;;;;;;5.13;1.50;;;22.50;70.80;;;;;;5082867;27;45052;-55
2023/09/15 03:14:16;;;;;;;1.55;1.20;;;22.60;71.50;;;;;;5083188;27;45176;-56
2023/09/15 03:16:43;;;;;;;2.50;1.08;;;22.60;71.80;;;;;;5079275;27;45074;-56
2023/09/15 03:19:10;;;;;;;2.15;1.10;;;22.60;72.00;;;;;;5071404;28;45379;-56
2023/09/15 03:21:38;;;;;;;1.33;1.13;;;22.60;72.20;;;;;;5075902;28;45048;-56
2023/09/15 03:24:06;;;;;;;1.42;1.10;;;22.70;72.40;;;;;;5072698;28;45270;-56
2023/09/15 03:26:33;;;;;;;1.48;1.08;;;22.70;72.40;;;;;;5078873;27;45366;-56
2023/09/15 03:29:00;;;;;;;1.38;1.00;;;22.60;72.50;;;;;;5082988;28;45057;-56
2023/09/15 03:31:28;;;;;;;3.20;1.10;;;22.70;72.60;;;;;;5069407;28;44653;-56
2023/09/15 03:33:55;;;;;;;1.73;1.02;;;22.70;72.80;;;;;;5071989;28;45216;-56
2023/09/15 03:36:22;;;;;;;1.23;1.00;;;22.70;72.90;;;;;;5079357;28;45466;-56
2023/09/15 03:38:49;;;;;;;1.13;0.93;;;22.70;73.00;;;;;;5071726;28;45202;-56
2023/09/15 03:41:16;;;;;;;1.52;0.98;;;22.70;73.00;;;;;;5070051;28;45245;-55
2023/09/15 03:43:42;;;;;;;2.17;1.05;;;22.70;73.00;;;;;;5073877;28;46182;-55
2023/09/15 03:46:09;;;;;;;2.95;1.10;;;22.70;73.00;;;;;;5075457;28;45319;-56
2023/09/15 03:48:37;;;;;;;1.50;0.98;;;22.70;73.10;;;;;;5076669;28;45212;-55
2023/09/15 03:51:04;;;;;;;2.15;0.85;;;22.70;73.20;;;;;;5072272;28;45328;-55
2023/09/15 03:53:31;;;;;;;1.48;1.00;;;22.70;73.10;;;;;;5080108;28;45135;-55
2023/09/15 03:55:58;;;;;;;1.48;1.08;;;22.70;73.20;;;;;;5078745;28;45098;-55
2023/09/15 03:58:24;;;;;;;2.25;1.33;;;22.70;73.30;;;;;;5069988;28;45097;-55
2023/09/15 04:00:51;;;;;;;1.67;1.13;;;22.70;73.40;;;;;;5079172;28;45161;-55
2023/09/15 04:03:20;;;;;;;1.50;0.95;;;22.70;73.50;;;;;;5080092;28;46196;-55
2023/09/15 04:05:48;;;;;;;1.73;1.10;;;22.70;73.50;;;;;;5074267;28;45263;-55
2023/09/15 04:08:15;;;;;;;1.73;0.95;;;22.70;73.50;;;;;;5072557;27;44744;-55
2023/09/15 04:10:42;;;;;;;1.42;0.90;;;22.70;73.50;;;;;;5081906;28;45185;-55
2023/09/15 04:13:09;;;;;;;1.20;1.05;;;22.70;73.50;;;;;;5084790;27;45216;-55
2023/09/15 04:15:35;;;;;;;1.45;0.88;;;22.70;73.50;;;;;;5079056;28;45141;-55
2023/09/15 04:18:03;;;;;;;1.45;1.10;;;22.70;73.50;;;;;;5073509;28;44794;-55
2023/09/15 04:20:30;;;;;;;2.22;1.20;;;22.70;73.60;;;;;;5078107;28;45117;-54
2023/09/15 04:22:58;;;;;;;2.53;1.10;;;22.70;73.50;;;;;;5084418;28;47337;-55
2023/09/15 04:25:25;;;;;;;1.88;1.02;;;22.70;73.50;;;;;;5081027;28;45105;-55
2023/09/15 04:27:52;;;;;;;1.40;0.95;;;22.70;73.50;;;;;;5077610;28;45099;-56
2023/09/15 04:30:18;;;;;;;3.80;1.10;;;22.70;73.40;;;;;;5074567;28;44634;-56
2023/09/15 04:32:45;;;;;;;2.28;0.95;;;22.70;73.50;;;;;;5074939;27;46184;-56
2023/09/15 04:35:12;;;;;;;3.58;1.23;;;22.70;73.40;;;;;;5083804;28;45286;-56
2023/09/15 04:37:39;;;;;;;2.58;1.25;;;22.70;73.40;;;;;;5085231;28;45139;-56
2023/09/15 04:40:09;;;;;;;1.75;1.00;;;22.70;73.40;;;;;;5084837;28;45125;-56
2023/09/15 04:42:40;;;;;;;1.88;1.20;;;22.70;73.40;;;;;;5079549;28;45351;-55
2023/09/15 04:45:07;;;;;;;2.15;1.05;;;22.70;73.40;;;;;;5076173;28;44673;-55
2023/09/15 04:47:36;;;;;;;1.02;0.90;;;22.70;73.30;;;;;;5072240;28;45074;-53
2023/09/15 04:50:03;;;;;;;2.08;1.10;;;22.70;73.30;;;;;;5076139;28;45555;-54
2023/09/15 04:52:30;;;;;;;1.75;1.20;;;22.70;73.30;;;;;;5080414;27;47294;-55
2023/09/15 04:54:57;;;;;;;1.40;1.00;;;22.70;73.40;;;;;;5077711;28;45257;-56
2023/09/15 04:57:25;;;;;;;2.47;0.90;;;22.70;74.40;;;;;;5084469;28;45194;-56
2023/09/15 04:59:53;;;;;;;1.15;0.98;;;22.70;73.30;;;;;;5070073;28;45159;-54
2023/09/15 05:02:22;;;;;;;2.75;1.23;;;22.80;73.50;;;;;;5073750;27;46351;-53
2023/09/15 05:04:49;;;;;;;1.88;1.25;;;22.70;73.40;;;;;;5084240;28;46299;-54
2023/09/15 05:07:16;;;;;;;1.45;1.20;;;22.70;73.40;;;;;;5074900;27;45272;-54
2023/09/15 05:09:43;;;;;;;1.10;1.00;;;22.80;73.50;;;;;;5084887;28;45388;-55
2023/09/15 05:12:09;;;;;;;1.63;1.38;;;22.80;73.40;;;;;;5081346;28;45257;-56
2023/09/15 05:14:37;;;;;;;1.52;1.00;;;22.80;73.70;;;;;;5079691;28;45175;-56
2023/09/15 05:17:04;;;;;;;5.60;1.30;;;22.70;73.70;;;;;;5072524;28;45079;-56
2023/09/15 05:19:31;;;;;;;2.33;1.20;;;22.70;73.80;;;;;;5083725;27;45268;-56
2023/09/15 05:21:58;;;;;;;1.95;1.10;;;22.80;73.90;;;;;;5075144;27;45321;-56
2023/09/15 05:24:25;;;;;;;1.67;1.13;;;22.70;73.30;;;;;;5077977;27;45165;-55
2023/09/15 05:26:52;;;;;;;4.65;1.15;;;22.70;71.60;;;;;;5074744;28;45095;-55
2023/09/15 05:29:19;;;;;;;1.73;1.02;;;22.70;69.60;;;;;;5075590;28;44649;-55
2023/09/15 05:31:47;;;;;;;4.95;1.20;;;22.60;68.50;;;;;;5076693;28;45155;-55
2023/09/15 05:34:13;;;;;;;1.88;1.08;;;22.60;67.90;;;;;;5080090;28;44686;-55
2023/09/15 05:36:40;;;;;;;5.07;1.95;;;;;;;;;;5081267;28;45187;-56
2023/09/15 05:39:07;;;;;;;7.78;1.95;;;22.00;66.30;;;;;;5077389;28;45438;-56
2023/09/15 05:41:34;;;;;;;4.10;1.85;;;19.00;77.40;;;;;;5084768;28;46381;-57
2023/09/15 05:44:01;;;;;;;3.95;1.92;;;16.70;90.20;;;;;;5075659;27;45055;-58
2023/09/15 05:46:27;;;;;;;5.95;2.00;;;15.00;95.20;;;;;;5070881;28;45173;-58
2023/09/15 05:48:56;;;;;;;4.18;2.30;;;13.90;98.90;;;;;;5074493;28;45074;-57
2023/09/15 05:51:23;;;;;;;4.22;2.45;;;13.50;99.90;;;;;;5076175;28;47927;-57
2023/09/15 05:53:49;;;;;;;7.78;2.58;;;13.20;99.90;;;;;;5079329;28;45162;-57
2023/09/15 05:56:17;;;;;;;7.38;2.10;;;13.20;99.90;;;;;;5082216;28;45149;-57
2023/09/15 05:58:44;;;;;;;9.23;2.35;;;13.10;99.90;;;;;;5084731;28;45229;-57
2023/09/15 06:01:10;;;;;;;5.45;2.70;;;13.00;99.90;;;;;;5083278;28;45271;-57
2023/09/15 06:03:37;;;;;;;6.97;2.35;;;12.90;99.90;;;;;;5072521;28;45275;-57
2023/09/15 06:06:06;;;;;;;5.05;2.20;;;13.00;99.90;;;;;;5076958;28;45145;-57
2023/09/15 06:08:32;;;;;;;5.90;2.40;;;13.00;99.90;;;;;;5080780;28;45293;-56
2023/09/15 06:11:00;;;;;;;5.78;2.20;;;13.00;99.90;;;;;;5079447;28;46385;-56
2023/09/15 06:13:27;;;;;;;5.95;2.08;;;13.00;99.90;;;;;;5068094;27;45164;-56
2023/09/15 06:15:53;;;;;;;5.05;2.58;;;13.10;99.90;;;;;;5080477;28;45226;-56
2023/09/15 06:18:20;;;;;;;11.80;2.45;;;13.30;99.90;;;;;;5080897;27;45168;-56
2023/09/15 06:20:48;;;;;;;4.25;2.40;;;13.50;99.90;;;;;;5069895;28;46020;-56
2023/09/15 06:23:16;;;;;;;5.93;2.42;;;13.60;99.90;;;;;;5073279;28;45639;-56
2023/09/15 06:25:46;;;;;;;4.53;1.90;;;14.10;99.90;;;;;;5081979;27;45113;-56
2023/09/15 06:28:13;;;;;;;7.97;2.78;;;14.80;99.90;;;;;;5082042;28;45095;-56
2023/09/15 06:30:40;;;;;;;6.45;2.47;;;14.50;99.90;;;;;;5072889;28;45147;-56
2023/09/15 06:33:06;;;;;;;6.60;2.38;;;13.90;99.90;;;;;;5076635;28;45095;-56
2023/09/15 06:35:33;;;;;;;8.00;2.10;;;14.50;99.90;;;;;;5070444;28;44594;-56
2023/09/15 06:38:00;;;;;;;4.13;1.90;;;14.60;99.90;;;;;;5077909;28;45140;-56
2023/09/15 06:40:28;;;;;;;2.83;1.70;;;15.20;99.90;;;;;;5079609;27;45257;-56
2023/09/15 06:42:55;;;;;;;4.45;2.28;;;15.90;99.90;;;;;;5078216;28;45095;-56
2023/09/15 06:45:22;;;;;;;5.35;2.30;;;16.00;98.10;;;;;;5077302;28;45162;-57
2023/09/15 06:47:48;;;;;;;10.18;2.63;;;15.50;99.60;;;;;;5075209;28;44982;-57
2023/09/15 06:50:15;;;;;;;7.72;2.72;;;14.50;99.90;;;;;;5074097;28;47618;-56
2023/09/15 06:52:42;;;;;;;5.38;2.22;;;14.90;99.90;;;;;;5070371;28;45250;-56
2023/09/15 06:55:09;;;;;;;4.50;2.13;;;14.30;99.90;;;;;;5077848;28;45320;-57
2023/09/15 06:57:37;;;;;;;10.35;2.25;;;16.50;99.90;;;;;;5074213;28;45178;-57
2023/09/15 07:00:04;;;;;;;7.22;2.47;;;18.00;96.00;;;;;;5084009;28;45086;-57
2023/09/15 07:02:31;;;;;;;5.07;2.10;;;18.90;93.70;;;;;;5076722;28;45198;-58
2023/09/15 07:04:58;;;;;;;6.45;1.83;;;17.50;94.10;;;;;;5076425;28;45173;-57
2023/09/15 07:07:24;;;;;;;5.18;2.33;;;16.90;97.00;;;;;;5069878;28;45221;-57
2023/09/15 07:09:51;;;;;;;4.55;1.73;;;17.40;95.60;;;;;;5071253;28;46362;-57
2023/09/15 07:12:18;;;;;;;5.07;1.60;;;19.50;92.40;;;;;;5070898;27;44639;-57
2023/09/15 07:14:49;;;;;;;8.70;2.50;;;19.00;90.80;;;;;;5072339;27;44626;-57
2023/09/15 07:17:16;;;;;;;9.98;2.30;;;17.80;93.30;;;;;;5071464;28;44825;-57
2023/09/15 07:19:44;;;;;;;6.25;2.25;;;17.80;95.00;;;;;;5075118;28;45590;-57
2023/09/15 07:22:11;;;;;;;5.63;2.63;;;18.00;95.60;;;;;;5079674;28;45259;-57
2023/09/15 07:24:40;;;;;;;3.03;1.45;;;17.70;94.10;;;;;;5069674;28;45398;-57
2023/09/15 07:27:08;;;;;;;6.38;1.92;;;17.90;96.90;;;;;;5077356;28;45147;-57
2023/09/15 07:29:35;;;;;;;9.00;2.08;;;18.70;93.70;;;;;;5079061;28;47964;-57
2023/09/15 07:32:04;;;;;;;4.30;2.00;;;18.40;95.10;;;;;;5069914;28;45181;-57
2023/09/15 07:34:30;;;;;;;5.57;2.15;;;18.90;91.80;;;;;;5081745;28;45233;-57
2023/09/15 07:36:59;;;;;;;2.67;1.52;;;18.00;94.10;;;;;;5075187;28;45024;-57
2023/09/15 07:39:26;;;;;;;5.57;1.40;;;17.70;96.60;;;;;;5073344;28;45400;-57
2023/09/15 07:41:53;;;;;;;7.15;2.30;;;18.60;94.90;;;;;;5076387;28;45108;-57
2023/09/15 07:44:19;;;;;;;7.50;1.70;;;20.20;88.90;;;;;;5073748;28;45227;-57
2023/09/15 07:46:46;;;;;;;3.97;1.85;;;20.60;89.10;;;;;;5071518;28;45059;-57
2023/09/15 07:49:14;;;;;;;4.13;1.90;;;21.10;85.00;;;;;;5070535;28;46050;-57
2023/09/15 07:51:41;;;;;;;3.78;1.63;;;20.10;91.50;;;;;;5066703;28;45099;-57
2023/09/15 07:54:08;;;;;;;5.50;1.63;;;20.20;92.90;;;;;;5071653;28;45336;-58
2023/09/15 07:56:36;;;;;;;6.82;2.05;;;20.50;91.00;;;;;;5074375;28;45296;-58
2023/09/15 07:59:03;;;;;;;4.55;1.90;;;20.10;90.40;;;;;;5079983;28;47457;-58
2023/09/15 08:01:30;;;;;;;2.88;1.60;;;20.50;90.40;;;;;;5077772;27;45039;-58
2023/09/15 08:03:57;;;;;;;4.45;1.88;;;20.70;91.30;;;;;;5074723;28;44741;-58
2023/09/15 08:06:27;;;;;;;5.97;2.10;;;20.70;91.00;;;;;;5084859;28;45304;-58
2023/09/15 08:08:53;;;;;;;8.10;1.80;;;20.70;88.20;;;;;;5086836;28;46353;-57
2023/09/15 08:11:20;;;;;;;5.18;1.60;;;20.70;89.80;;;;;;5076633;28;44591;-58
2023/09/15 08:13:47;;;;;;;8.93;1.70;;;20.70;90.10;;;;;;5078972;28;45022;-58
2023/09/15 08:16:14;;;;;;;5.50;2.10;;;20.70;90.50;;;;;;5071488;28;45190;-57
2023/09/15 08:18:41;;;;;;;5.13;1.60;;;20.80;91.60;;;;;;5073708;28;46506;-58
2023/09/15 08:21:07;;;;;;;5.07;1.98;;;20.90;92.10;;;;;;5079270;28;45161;-57
2023/09/15 08:23:35;;;;;;;3.13;1.50;;;21.00;92.90;;;;;;5084904;28;45213;-58
2023/09/15 08:26:02;;;;;;;4.60;1.80;;;21.00;90.70;;;;;;5085602;28;44654;-58
2023/09/15 08:28:29;;;;;;;8.35;1.70;;;21.10;90.20;;;;;;5072693;28;47113;-58
2023/09/15 08:30:56;;;;;;;3.33;1.70;;;21.10;89.00;;;;;;5073897;28;45075;-58
2023/09/15 08:33:22;;;;;;;4.22;1.73;;;21.00;89.90;;;;;;5082582;28;45064;-58
2023/09/15 08:35:49;;;;;;;4.53;1.88;;;20.90;89.20;;;;;;5084546;28;44743;-57
2023/09/15 08:38:16;;;;;;;4.60;1.35;;;20.70;89.20;;;;;;5077911;28;46231;-57
2023/09/15 08:40:49;;;;;;;1.70;1.10;;;20.80;90.20;;;;;;5084129;28;45130;-57
2023/09/15 08:43:16;;;;;;;4.78;1.88;;;20.90;90.20;;;;;;5073286;27;45129;-58
2023/09/15 08:45:45;;;;;;;5.38;1.83;;;20.90;87.70;;;;;;5080211;28;45230;-58
2023/09/15 08:48:17;;;;;;;3.60;1.25;;;20.70;87.50;;;;;;5083402;27;45427;-58
2023/09/15 08:50:45;;;;;;;3.70;1.40;;;20.80;90.40;;;;;;5085610;27;45232;-57
2023/09/15 08:53:13;;;;;;;2.97;1.50;;;20.80;90.50;;;;;;5074827;28;45180;-57
2023/09/15 08:55:41;;;;;;;3.22;1.38;;;20.90;87.40;;;;;;5078798;28;45196;-57
2023/09/15 08:58:09;;;;;;;3.03;1.50;;;21.00;90.60;;;;;;5068628;28;47319;-57
2023/09/15 09:00:36;;;;;;;3.42;1.70;;;21.10;90.80;;;;;;5076110;28;45491;-57
2023/09/15 09:03:04;;;;;;;3.55;1.60;;;21.00;87.40;;;;;;5084448;27;45175;-57
2023/09/15 09:05:32;;;;;;;6.80;1.55;;;20.80;88.60;;;;;;5075588;28;45088;-57
2023/09/15 09:08:02;;;;;;;3.03;1.42;;;20.90;88.70;;;;;;5078557;28;47297;-57
2023/09/15 09:10:29;;;;;;;2.33;1.52;;;21.00;91.10;;;;;;5080411;28;45828;-57
2023/09/15 09:12:55;;;;;;;5.70;1.67;;;21.00;90.50;;;;;;5076669;28;44599;-57
2023/09/15 09:15:26;;;;;;;3.80;1.50;;;21.00;90.10;;;;;;5075963;27;45050;-57
2023/09/15 09:17:52;;;;;;;2.08;1.17;;;20.90;91.40;;;;;;5076009;27;46216;-57
2023/09/15 09:20:26;;;;;;;2.50;1.13;;;21.00;90.80;;;;;;5076433;28;45159;-57
2023/09/15 09:22:54;;;;;;;3.95;1.52;;;21.10;89.50;;;;;;5075367;28;45353;-57
2023/09/15 09:25:27;;;;;;;7.68;1.63;;;20.90;85.70;;;;;;5078489;28;45252;-57
2023/09/15 09:27:55;;;;;;;3.00;1.38;;;20.80;90.30;;;;;;5081756;28;46392;-57
2023/09/15 09:30:26;;;;;;;2.28;1.05;;;20.90;91.40;;;;;;5067229;28;45175;-57
2023/09/15 09:32:53;;;;;;;1.77;1.10;;;21.10;90.60;;;;;;5082775;28;45288;-57
2023/09/15 09:35:19;;;;;;;3.25;1.13;;;21.10;90.10;;;;;;5060567;28;44885;-57
2023/09/15 09:37:47;;;;;;;2.03;1.08;;;20.90;91.80;;;;;;5078339;28;47999;-57
2023/09/15 09:40:14;;;;;;;3.28;1.20;;;21.10;90.30;;;;;;5081974;28;44699;-57
2023/09/15 09:42:42;;;;;;;2.88;1.30;;;21.00;87.70;;;;;;5082533;27;45117;-57
2023/09/15 09:45:09;;;;;;;3.72;1.52;;;21.00;90.40;;;;;;5073870;27;45209;-57
2023/09/15 09:47:38;;;;;;;3.25;1.60;;;21.10;92.70;;;;;;5066561;28;46203;-57
2023/09/15 09:50:07;;;;;;;2.00;1.30;;;21.10;89.20;;;;;;5071938;28;45209;-57
2023/09/15 09:52:35;;;;;;;3.72;1.35;;;21.10;90.30;;;;;;5081571;28;44635;-57
2023/09/15 09:55:04;;;;;;;3.15;1.42;;;21.00;90.30;;;;;;5078331;28;45374;-57
2023/09/15 09:57:31;;;;;;;3.38;1.45;;;21.10;90.70;;;;;;5078877;28;46278;-57
2023/09/15 09:59:58;;;;;;;3.15;1.42;;;21.20;88.30;;;;;;5075007;28;45296;-57
2023/09/15 10:02:26;;;;;;;2.50;1.30;;;21.10;87.30;;;;;;5077889;28;44678;-57
2023/09/15 10:04:54;;;;;;;3.30;1.27;;;21.00;89.90;;;;;;5075918;28;44789;-57
2023/09/15 10:07:21;;;;;;;4.55;1.77;;;20.80;88.20;;;;;;5071315;28;46225;-57
2023/09/15 10:09:48;;;;;;;1.55;0.98;;;20.70;89.40;;;;;;5079129;28;44601;-57
2023/09/15 10:12:16;;;;;;;3.22;1.65;;;20.80;90.70;;;;;;5075594;27;45059;-57
2023/09/15 10:14:43;;;;;;;4.72;2.13;;;21.00;90.10;;;;;;5075129;28;45106;-57
2023/09/15 10:17:10;;;;;;;2.65;1.83;;;21.00;87.90;;;;;;5077075;27;46351;-57
2023/09/15 10:19:37;;;;;;;6.35;1.80;;;21.10;89.40;;;;;;5074405;27;45386;-57
2023/09/15 10:22:06;;;;;;;5.05;2.03;;;21.10;90.00;;;;;;5080036;28;45261;-57
2023/09/15 10:24:33;;;;;;;6.07;2.20;;;21.20;89.20;;;;;;5070729;28;45146;-57
2023/09/15 10:27:00;;;;;;;4.03;1.80;;;20.80;88.20;;;;;;5067570;27;45486;-57
2023/09/15 10:29:31;;;;;;;3.08;1.75;;;20.50;91.10;;;;;;5079943;27;45114;-57
2023/09/15 10:32:03;;;;;;;2.53;1.40;;;20.90;90.10;;;;;;5082970;27;45193;-57
2023/09/15 10:34:30;;;;;;;3.72;1.85;;;21.00;89.60;;;;;;5075192;28;45237;-57
2023/09/15 10:37:01;;;;;;;3.92;1.92;;;21.10;87.70;;;;;;5073931;28;45464;-57
2023/09/15 10:39:36;;;;;;;4.18;1.42;;;21.00;87.90;;;;;;5079717;27;45184;-57
2023/09/15 10:42:08;;;;;;;4.57;2.28;;;21.10;88.90;;;;;;5072994;27;45242;-57
2023/09/15 10:44:35;;;;;;;4.80;1.88;;;21.10;87.70;;;;;;5077661;28;45086;-57
2023/09/15 10:47:02;;;;;;;4.22;2.13;;;21.10;86.10;;;;;;5077082;28;45331;-57
2023/09/15 10:49:29;;;;;;;6.20;2.20;;;21.10;87.60;;;;;;5081979;28;45588;-57
2023/09/15 10:51:57;;;;;;;4.35;1.95;;;21.10;85.90;;;;;;5077105;27;45248;-57
2023/09/15 10:54:26;;;;;;;2.60;1.40;;;21.20;88.50;;;;;;5072705;28;45195;-57
2023/09/15 10:56:55;;;;;;;3.70;1.30;;;21.20;88.80;;;;;;5079809;28;46569;-57
2023/09/15 10:59:22;;;;;;;3.58;1.70;;;21.30;90.00;;;;;;5081122;28;45093;-57
2023/09/15 11:01:50;;;;;;;4.03;1.88;;;21.30;88.70;;;;;;5079812;27;45082;-57
2023/09/15 11:04:20;;;;;;;4.05;1.55;;;21.40;86.70;;;;;;5081054;27;45180;-57
2023/09/15 11:06:49;;;;;;;4.68;2.03;;;21.40;90.20;;;;;;5082528;28;46359;-57
2023/09/15 11:09:16;;;;;;;2.78;1.70;;;21.30;87.20;;;;;;5081547;27;45129;-57
2023/09/15 11:11:45;;;;;;;1.70;1.30;;;21.30;91.70;;;;;;5080647;28;45285;-57
2023/09/15 11:14:16;;;;;;;5.80;2.55;;;21.30;90.80;;;;;;5075762;27;45144;-57
2023/09/15 11:16:48;;;;;;;3.45;1.73;;;21.30;83.10;;;;;;5070920;28;46730;-57
2023/09/15 11:19:17;;;;;;;9.15;2.13;;;21.40;85.40;;;;;;5083397;28;45125;-57
2023/09/15 11:21:45;;;;;;;7.03;2.47;;;21.40;85.90;;;;;;5084355;28;45692;-57
2023/09/15 11:24:12;;;;;;;4.70;1.88;;;21.40;85.10;;;;;;5081365;28;45194;-57
2023/09/15 11:26:47;;;;;;;3.20;1.70;;;21.40;84.70;;;;;;5077146;28;46986;-57
2023/09/15 11:29:15;;;;;;;4.10;1.48;;;21.40;89.30;;;;;;5078516;27;45277;-57
2023/09/15 11:31:43;;;;;;;5.97;2.10;;;21.40;85.40;;;;;;5079294;28;45141;-57
2023/09/15 11:34:10;;;;;;;3.33;1.40;;;21.40;87.70;;;;;;5081709;28;45154;-57
2023/09/15 11:36:38;;;;;;;5.00;1.55;;;21.40;90.20;;;;;;5076159;27;47512;-57
2023/09/15 11:39:11;;;;;;;3.33;1.60;;;21.40;90.80;;;;;;5076089;28;45577;-57
2023/09/15 11:41:38;;;;;;;2.78;1.65;;;21.40;82.10;;;;;;5070294;28;45115;-57
2023/09/15 11:44:08;;;;;;;3.85;1.80;;;21.40;85.60;;;;;;5077701;28;45293;-57
2023/09/15 11:46:38;;;;;;;6.20;1.63;;;21.40;86.00;;;;;;5070431;28;46216;-57
2023/09/15 11:49:06;;;;;;;1.83;1.10;;;21.50;85.50;;;;;;5081796;28;45176;-57
2023/09/15 11:51:33;;;;;;;2.97;1.20;;;21.50;87.30;;;;;;5079355;28;45376;-57
2023/09/15 11:54:00;;;;;;;4.20;1.58;;;21.50;89.80;;;;;;5075508;27;45310;-57
2023/09/15 11:56:27;;;;;;;2.05;1.30;;;21.50;89.10;;;;;;5077869;28;47225;-57
2023/09/15 11:58:54;;;;;;;1.98;1.50;;;21.50;83.50;;;;;;5071827;28;45059;-57
2023/09/15 12:01:23;;;;;;;4.53;1.40;;;21.60;84.30;;;;;;5079458;28;45103;-57
2023/09/15 12:03:52;;;;;;;1.60;1.08;;;21.50;85.50;;;;;;5080404;28;45075;-57
2023/09/15 12:06:21;;;;;;;1.85;1.20;;;21.40;87.70;;;;;;5083735;28;47019;-57
2023/09/15 12:08:49;;;;;;;2.45;1.20;;;21.50;90.90;;;;;;5085357;28;45640;-57
2023/09/15 12:11:17;;;;;;;5.45;1.58;;;21.50;83.00;;;;;;5082190;28;45066;-57
2023/09/15 12:13:48;;;;;;;2.20;1.20;;;21.60;80.70;;;;;;5081791;28;45208;-57
2023/09/15 12:16:19;;;;;;;2.78;1.20;;;21.60;84.00;;;;;;5067665;28;45280;-57
2023/09/15 12:18:46;;;;;;;1.98;1.20;;;21.60;83.50;;;;;;5081940;28;45101;-57
2023/09/15 12:21:15;;;;;;;2.63;1.27;;;21.60;76.60;;;;;;5070333;28;45107;-57
2023/09/15 12:23:43;;;;;;;1.60;1.20;;;21.60;82.10;;;;;;5076794;28;45391;-57
2023/09/15 12:26:10;;;;;;;1.90;1.13;;;21.60;83.70;;;;;;5082503;27;45201;-57
2023/09/15 12:28:37;;;;;;;1.50;0.90;;;21.60;84.00;;;;;;5075978;28;45731;-57
2023/09/15 12:31:04;;;;;;;1.90;1.08;;;21.60;88.00;;;;;;5077409;28;45168;-57
2023/09/15 12:33:31;;;;;;;2.35;1.00;;;21.70;81.90;;;;;;5085785;28;44713;-57
2023/09/15 12:36:04;;;;;;;4.75;1.60;;;21.70;86.60;;;;;;5080886;28;46376;-57
2023/09/15 12:38:32;;;;;;;3.30;1.50;;;21.70;83.50;;;;;;5080967;28;45229;-57
2023/09/15 12:40:59;;;;;;;1.60;1.10;;;21.70;83.50;;;;;;5072198;28;45225;-57
2023/09/15 12:43:25;;;;;;;2.05;1.23;;;21.80;79.90;;;;;;5072478;28;45290;-57
2023/09/15 12:45:53;;;;;;;2.55;1.25;;;21.80;79.80;;;;;;5082205;28;45331;-57
2023/09/15 12:48:20;;;;;;;1.58;1.05;;;21.80;79.20;;;;;;5081387;28;45305;-57
2023/09/15 12:50:47;;;;;;;1.88;1.15;;;21.80;85.20;;;;;;5066492;28;45212;-57